23:00
Airports
Links
Donate
Help keep this website running!
PayPal
Bitcoin
METAR
LFPG 222230Z 04011KT CAVOK M00/M04 Q1018 NOSIG
Current Weather Conditions at LFPG
VFR 22:30:00 22-02-18
Altimeter:30.06 hg
Temp:0.0°c 32°f
Dew point:-4.0°c 25°f
Wind:11 knots, 12.7 mph, 6 m/s, from 40°
Visibility:6.21 statute miles
(CAVOK)
No significant weather changes expected within 2 hours.
Past METAR reports
VFR 22:00:00 22-02-18
Altimeter:30.06 hg
Temp:0.0°c 32°f
Dew point:-4.0°c 25°f
Wind:11 knots, 12.7 mph, 6 m/s, from 40°
Visibility:6.21 statute miles
(CAVOK)
No significant weather changes expected within 2 hours.
LFPG 222200Z 04011KT CAVOK 00/M04 Q1018 NOSIG
VFR 21:30:00 22-02-18
Altimeter:30.06 hg
Temp:0.0°c 32°f
Dew point:-4.0°c 25°f
Wind:11 knots, 12.7 mph, 6 m/s, from 40°
Visibility:6.21 statute miles
(CAVOK)
No significant weather changes expected within 2 hours.
LFPG 222130Z 04011KT CAVOK 00/M04 Q1018 NOSIG
VFR 21:00:00 22-02-18
Altimeter:30.06 hg
Temp:1.0°c 34°f
Dew point:-4.0°c 25°f
Wind:11 knots, 12.7 mph, 6 m/s, from 40°
Visibility:6.21 statute miles
(CAVOK)
No significant weather changes expected within 2 hours.
LFPG 222100Z 04011KT CAVOK 01/M04 Q1018 NOSIG
VFR 20:30:00 22-02-18
Altimeter:30.03 hg
Temp:1.0°c 34°f
Dew point:-4.0°c 25°f
Wind:12 knots, 13.8 mph, 6 m/s, from 40°
Visibility:6.21 statute miles
(CAVOK)
No significant weather changes expected within 2 hours.
LFPG 222030Z 04012KT CAVOK 01/M04 Q1017 NOSIG
VFR 20:00:00 22-02-18
Altimeter:30.06 hg
Temp:1.0°c 34°f
Dew point:-4.0°c 25°f
Wind:12 knots, 13.8 mph, 6 m/s, from 40°
Visibility:6.21 statute miles
(CAVOK)
No significant weather changes expected within 2 hours.
LFPG 222000Z 04012KT CAVOK 01/M04 Q1018 NOSIG
VFR 19:30:00 22-02-18
Altimeter:30.06 hg
Temp:1.0°c 34°f
Dew point:-4.0°c 25°f
Wind:13 knots, 15 mph, 7 m/s, from 40°
Visibility:6.21 statute miles
(CAVOK)
No significant weather changes expected within 2 hours.
LFPG 221930Z 04013KT 020V080 CAVOK 01/M04 Q1018 NOSIG
TAF
TAF LFPG 221700Z 2218/2324 03010KT CAVOK TEMPO 2310/2318 05012G22KT TX04/2315Z TNM04/2306Z
Forecast at LFPG
18:00 22-02-18 to 00:00 24-02-18
NSW
Wind:10 Knots from 30°
Visibility:6.21 statute miles
NSC
TEMPO 10:00 23-02-18 to 18:00 23-02-18
Wind:12 Knots from 50°